Time;durP1;ratioP1;P1;durP2;ratioP2;P2;SDS_P1;SDS_P2;PMS_P1;PMS_P2;Temp;Humidity;BMP_temperature;BMP_pressure;BME280_temperature;BME280_humidity;BME280_pressure;Samples;Min_cycle;Max_cycle;Signal;HPM_P1;HPM_P2
2023/02/08 00:01:56;;;;;;;12.52;9.32;;;9.60;80.40;;;;;;6085380;23;20094;-76
2023/02/08 00:04:21;;;;;;;12.85;9.00;;;9.50;80.30;;;;;;6085768;23;20327;-75
2023/02/08 00:06:47;;;;;;;12.88;8.90;;;9.60;80.40;;;;;;6061300;23;20010;-77
2023/02/08 00:09:12;;;;;;;12.80;9.30;;;9.60;80.50;;;;;;6061591;23;20010;-78
2023/02/08 00:11:38;;;;;;;11.85;8.60;;;9.60;80.40;;;;;;6086897;23;20345;-75
2023/02/08 00:14:03;;;;;;;12.88;9.18;;;9.60;80.40;;;;;;6086772;23;20014;-75
2023/02/08 00:16:29;;;;;;;13.50;9.02;;;9.60;80.40;;;;;;6086283;23;20060;-75
2023/02/08 00:18:55;;;;;;;11.52;8.65;;;9.60;80.50;;;;;;6086738;23;19999;-77
2023/02/08 00:21:20;;;;;;;13.30;8.82;;;9.60;80.50;;;;;;6061575;23;20480;-76
2023/02/08 00:23:46;;;;;;;11.50;8.45;;;9.60;80.40;;;;;;6085164;23;20013;-77
2023/02/08 00:26:13;;;;;;;14.40;9.05;;;9.60;80.40;;;;;;6061205;23;20045;-75
2023/02/08 00:28:39;;;;;;;12.88;9.05;;;9.60;80.40;;;;;;6087131;23;20041;-78
2023/02/08 00:31:05;;;;;;;12.35;8.77;;;9.60;80.40;;;;;;6086614;23;20011;-77
2023/02/08 00:33:30;;;;;;;12.80;8.77;;;9.60;80.40;;;;;;6086602;23;20045;-77
2023/02/08 00:36:03;;;;;;;13.40;9.02;;;9.50;80.30;;;;;;6086490;23;20461;-77
2023/02/08 00:38:29;;;;;;;12.18;8.65;;;9.60;80.40;;;;;;6086791;23;20011;-76
2023/02/08 00:40:54;;;;;;;12.52;8.73;;;9.60;80.30;;;;;;6086574;23;20101;-76
2023/02/08 00:43:20;;;;;;;12.95;8.45;;;9.60;80.40;;;;;;6061508;23;19999;-75
2023/02/08 00:45:45;;;;;;;12.15;8.52;;;9.50;80.30;;;;;;6085770;23;20036;-76
2023/02/08 00:48:11;;;;;;;12.00;8.13;;;9.50;80.30;;;;;;6086813;23;20006;-77
2023/02/08 00:50:36;;;;;;;12.15;8.70;;;9.60;80.40;;;;;;6085042;23;20318;-78
2023/02/08 00:53:02;;;;;;;12.60;8.93;;;9.50;80.30;;;;;;6086540;23;20011;-77
2023/02/08 00:55:27;;;;;;;12.30;8.50;;;9.60;80.40;;;;;;6086284;23;20019;-77
2023/02/08 00:57:53;;;;;;;12.35;8.65;;;9.50;80.30;;;;;;6087460;23;19999;-77
2023/02/08 01:00:18;;;;;;;12.88;9.43;;;9.50;80.30;;;;;;6061718;23;20014;-76
2023/02/08 01:02:44;;;;;;;11.77;8.57;;;9.50;80.30;;;;;;6087183;23;20105;-75
2023/02/08 01:05:10;;;;;;;12.38;8.48;;;9.50;80.30;;;;;;6086284;23;20344;-78
2023/02/08 01:07:36;;;;;;;12.95;9.25;;;9.60;80.40;;;;;;6061115;23;20085;-76
2023/02/08 01:10:04;;;;;;;11.40;8.05;;;9.50;80.30;;;;;;6085385;23;20010;-76
2023/02/08 01:12:29;;;;;;;12.27;8.95;;;9.50;80.40;;;;;;6061234;23;20003;-78
2023/02/08 01:14:55;;;;;;;11.75;8.90;;;9.40;80.30;;;;;;6060902;23;20041;-78
2023/02/08 01:17:20;;;;;;;12.32;8.60;;;9.50;80.30;;;;;;6086989;23;20002;-77
2023/02/08 01:19:46;;;;;;;13.02;9.23;;;9.50;80.40;;;;;;6086986;23;20034;-76
2023/02/08 01:22:11;;;;;;;12.00;8.55;;;9.50;80.40;;;;;;6086918;23;20005;-76
2023/02/08 01:24:37;;;;;;;12.15;8.93;;;9.50;80.40;;;;;;6085301;23;20014;-77
2023/02/08 01:27:02;;;;;;;11.75;8.50;;;9.50;80.40;;;;;;6061575;23;20337;-77
2023/02/08 01:29:28;;;;;;;11.60;7.85;;;9.50;80.40;;;;;;6086049;23;20007;-76
2023/02/08 01:31:53;;;;;;;12.65;8.43;;;9.50;80.40;;;;;;6087158;23;20045;-78
2023/02/08 01:34:19;;;;;;;11.85;8.50;;;9.50;80.50;;;;;;6086877;23;20005;-77
2023/02/08 01:36:44;;;;;;;12.50;8.40;;;9.50;80.40;;;;;;6087674;23;20010;-79
2023/02/08 01:39:10;;;;;;;12.40;9.00;;;9.50;80.40;;;;;;6086793;23;20033;-77
2023/02/08 01:41:42;;;;;;;10.43;7.90;;;9.40;80.40;;;;;;6085494;23;20054;-77
2023/02/08 01:44:46;;;;;;;12.05;8.30;;;9.50;80.50;;;;;;6086911;23;20078;-77
2023/02/08 01:47:11;;;;;;;12.45;8.93;;;9.50;80.50;;;;;;6085192;23;20021;-77
2023/02/08 01:49:37;;;;;;;11.27;7.68;;;9.50;80.40;;;;;;6085140;23;20437;-76
2023/02/08 01:52:23;;;;;;;11.52;8.38;;;9.50;80.40;;;;;;6085382;23;20010;-77
2023/02/08 01:54:57;;;;;;;12.27;8.57;;;9.50;80.50;;;;;;6085202;23;20015;-78
2023/02/08 01:57:24;;;;;;;11.93;8.40;;;9.50;80.40;;;;;;6085362;23;20002;-79
2023/02/08 01:59:55;;;;;;;12.48;8.68;;;9.50;80.40;;;;;;6086447;23;20492;-79
2023/02/08 02:02:22;;;;;;;11.73;8.23;;;9.50;80.40;;;;;;6086497;23;20013;-77
2023/02/08 02:04:49;;;;;;;10.60;7.55;;;9.50;80.40;;;;;;6085412;23;20003;-77
2023/02/08 02:07:17;;;;;;;10.50;7.72;;;9.50;80.40;;;;;;6086478;23;20010;-77
2023/02/08 02:09:45;;;;;;;11.52;8.10;;;9.50;80.40;;;;;;6085430;23;20007;-77
2023/02/08 02:12:12;;;;;;;11.77;8.32;;;9.50;80.40;;;;;;6085937;23;20064;-76
2023/02/08 02:14:38;;;;;;;11.60;8.27;;;9.50;80.40;;;;;;6087187;23;19998;-81
2023/02/08 02:17:04;;;;;;;10.82;8.18;;;9.50;80.40;;;;;;6085984;23;20496;-76
2023/02/08 02:19:58;;;;;;;10.00;7.40;;;9.50;80.40;;;;;;6085586;23;20002;-77
2023/02/08 02:22:49;;;;;;;12.55;8.48;;;9.50;80.50;;;;;;6086906;23;20002;-77
2023/02/08 02:25:27;;;;;;;;;;;9.50;80.40;;;;;;6087189;23;20002;-77
2023/02/08 02:28:14;;;;;;;11.65;8.20;;;9.50;80.40;;;;;;6086199;23;19905;-77
2023/02/08 02:31:10;;;;;;;10.88;7.85;;;9.50;80.40;;;;;;6087046;23;20094;-77
2023/02/08 02:34:02;;;;;;;11.85;8.15;;;9.50;80.40;;;;;;6087678;23;20377;-77
2023/02/08 02:36:51;;;;;;;11.65;8.43;;;9.50;80.40;;;;;;6085246;23;20044;-76
2023/02/08 02:39:44;;;;;;;10.80;7.95;;;9.50;80.40;;;;;;6087397;23;20064;-77
2023/02/08 02:45:32;;;;;;;11.88;8.52;;;9.50;80.40;;;;;;6086338;23;20056;-78
2023/02/08 02:48:08;;;;;;;11.13;7.97;;;9.50;80.50;;;;;;6086584;23;20014;-77
2023/02/08 02:50:45;;;;;;;11.02;7.70;;;9.50;80.50;;;;;;6086805;23;20030;-78
2023/02/08 02:53:33;;;;;;;11.85;8.27;;;9.50;80.50;;;;;;6084953;23;20092;-77
2023/02/08 02:56:04;;;;;;;12.02;8.15;;;9.50;80.50;;;;;;6086430;23;20017;-76
2023/02/08 02:58:31;;;;;;;11.60;8.13;;;9.50;80.50;;;;;;6085403;23;20006;-77
2023/02/08 03:00:58;;;;;;;11.57;8.15;;;9.50;80.50;;;;;;6085206;23;20018;-78
2023/02/08 03:03:31;;;;;;;11.00;7.97;;;9.50;80.50;;;;;;6060830;23;20006;-77
2023/02/08 03:06:09;;;;;;;10.80;7.38;;;9.50;80.60;;;;;;6086119;23;20026;-77
2023/02/08 03:08:41;;;;;;;10.80;7.57;;;9.50;80.50;;;;;;6086719;23;20002;-76
2023/02/08 03:11:18;;;;;;;10.25;7.70;;;9.50;80.50;;;;;;6086556;23;20013;-77
2023/02/08 03:13:59;;;;;;;10.77;7.70;;;9.40;80.40;;;;;;6061333;23;20197;-77
2023/02/08 03:17:03;;;;;;;11.60;7.90;;;9.40;80.50;;;;;;6059985;23;20007;-76
2023/02/08 03:19:39;;;;;;;10.10;7.63;;;9.50;80.70;;;;;;6060779;23;20033;-79
2023/02/08 03:22:15;;;;;;;12.30;8.60;;;9.40;80.40;;;;;;6086095;23;20429;-76
2023/02/08 03:24:57;;;;;;;11.05;7.88;;;9.50;80.60;;;;;;6086809;23;20014;-78
2023/02/08 03:27:44;;;;;;;11.38;7.38;;;9.40;80.40;;;;;;6084317;23;20024;-76
2023/02/08 03:30:37;;;;;;;10.65;7.70;;;9.50;80.60;;;;;;6085707;23;20037;-76
2023/02/08 03:33:16;;;;;;;10.45;7.57;;;9.50;80.60;;;;;;6086236;23;20777;-77
2023/02/08 03:36:09;;;;;;;10.48;7.65;;;9.40;80.50;;;;;;6085760;23;20421;-76
2023/02/08 03:38:41;;;;;;;11.27;7.68;;;9.40;80.50;;;;;;6086098;23;20014;-78
2023/02/08 03:41:11;;;;;;;11.55;8.15;;;9.40;80.50;;;;;;6086309;23;20002;-80
2023/02/08 03:43:41;;;;;;;10.05;7.30;;;9.40;80.50;;;;;;6060820;23;20003;-77
2023/02/08 03:46:15;;;;;;;10.60;7.50;;;9.40;80.50;;;;;;6084676;23;20037;-78
2023/02/08 03:48:46;;;;;;;10.27;7.55;;;9.40;80.50;;;;;;6060773;23;20006;-76
2023/02/08 03:51:14;;;;;;;10.35;7.15;;;9.40;80.50;;;;;;6085493;23;19999;-77
2023/02/08 03:53:43;;;;;;;10.45;7.78;;;9.40;80.50;;;;;;6060588;23;20015;-76
2023/02/08 03:56:16;;;;;;;11.48;7.78;;;9.40;80.40;;;;;;6086271;23;20042;-77
2023/02/08 03:58:58;;;;;;;10.70;7.90;;;9.40;80.50;;;;;;6086022;23;20602;-76
2023/02/08 04:01:30;;;;;;;10.45;7.30;;;9.40;80.50;;;;;;6085836;23;20014;-77
2023/02/08 04:03:58;;;;;;;10.73;7.55;;;9.40;80.50;;;;;;6084712;23;20003;-76
2023/02/08 04:06:24;;;;;;;10.15;7.20;;;9.40;80.50;;;;;;6085939;23;20374;-77
2023/02/08 04:08:49;;;;;;;10.77;7.50;;;9.50;80.60;;;;;;6061048;23;20016;-79
2023/02/08 04:11:15;;;;;;;10.55;7.75;;;9.40;80.40;;;;;;6084434;23;20445;-77
2023/02/08 04:13:41;;;;;;;11.18;7.40;;;9.40;80.50;;;;;;6086616;23;20033;-76
2023/02/08 04:16:08;;;;;;;11.05;7.55;;;9.40;80.40;;;;;;6084433;23;20006;-76
2023/02/08 04:18:33;;;;;;;10.52;7.38;;;9.40;80.40;;;;;;6060378;23;20033;-77
2023/02/08 04:20:59;;;;;;;10.68;7.47;;;9.40;80.50;;;;;;6084602;23;20371;-77
2023/02/08 04:23:24;;;;;;;11.02;7.55;;;9.40;80.40;;;;;;6060262;23;20007;-76
2023/02/08 04:25:50;;;;;;;10.30;7.15;;;9.40;80.50;;;;;;6084046;23;20349;-74
2023/02/08 04:28:15;;;;;;;10.35;7.10;;;9.40;80.50;;;;;;6085369;23;20038;-76
2023/02/08 04:30:41;;;;;;;10.82;7.55;;;9.40;80.40;;;;;;6086352;23;20019;-75
2023/02/08 04:33:06;;;;;;;10.18;7.03;;;9.40;80.40;;;;;;6085447;23;20045;-74
2023/02/08 04:35:33;;;;;;;10.43;7.57;;;9.40;80.50;;;;;;6086105;23;20002;-76
2023/02/08 04:37:58;;;;;;;10.55;7.65;;;9.40;80.50;;;;;;6086131;23;20022;-75
2023/02/08 04:40:24;;;;;;;10.75;7.47;;;9.40;80.50;;;;;;6086635;23;20002;-76
2023/02/08 04:42:49;;;;;;;10.40;7.30;;;9.40;80.50;;;;;;6061350;23;20081;-75
2023/02/08 04:45:15;;;;;;;10.98;7.80;;;9.40;80.50;;;;;;6058428;23;20036;-76
2023/02/08 04:47:40;;;;;;;10.45;7.35;;;9.40;80.50;;;;;;6086378;23;20013;-78
2023/02/08 04:50:06;;;;;;;8.93;6.55;;;9.40;80.50;;;;;;6059631;23;20349;-78
2023/02/08 04:52:31;;;;;;;10.45;7.30;;;9.40;80.50;;;;;;6085068;23;20065;-77
2023/02/08 04:54:57;;;;;;;9.88;7.25;;;9.40;80.50;;;;;;6085314;23;20016;-75
2023/02/08 04:57:22;;;;;;;10.68;7.43;;;9.40;80.40;;;;;;6060983;23;20002;-77
2023/02/08 04:59:48;;;;;;;10.00;6.78;;;9.40;80.40;;;;;;6061067;23;20002;-74
2023/02/08 05:02:13;;;;;;;9.85;6.90;;;9.40;80.40;;;;;;6087558;23;20037;-77
2023/02/08 05:04:39;;;;;;;10.20;7.07;;;9.40;80.40;;;;;;6061205;23;20002;-77
2023/02/08 05:07:04;;;;;;;10.93;7.72;;;9.40;80.40;;;;;;6086670;23;20007;-77
2023/02/08 05:09:30;;;;;;;10.85;7.80;;;9.40;80.50;;;;;;6061507;23;20315;-77
2023/02/08 05:11:55;;;;;;;9.60;7.07;;;9.40;80.30;;;;;;6061676;23;20006;-77
2023/02/08 05:14:21;;;;;;;10.25;7.05;;;9.40;80.40;;;;;;6089299;23;20007;-79
2023/02/08 05:16:46;;;;;;;9.75;7.20;;;9.40;80.50;;;;;;6085018;23;20010;-76
2023/02/08 05:19:12;;;;;;;10.10;6.97;;;9.40;80.40;;;;;;6087789;23;20006;-76
2023/02/08 05:21:37;;;;;;;9.32;7.05;;;9.40;80.50;;;;;;6061174;23;20034;-78
2023/02/08 05:24:03;;;;;;;9.85;7.30;;;9.40;80.40;;;;;;6084730;23;20010;-77
2023/02/08 05:26:28;;;;;;;10.55;7.05;;;9.40;80.40;;;;;;6086455;23;20034;-77
2023/02/08 05:28:54;;;;;;;10.80;7.60;;;9.40;80.30;;;;;;6085987;23;20067;-77
2023/02/08 05:31:22;;;;;;;9.73;7.13;;;9.40;80.30;;;;;;6062755;23;20003;-78
2023/02/08 05:33:49;;;;;;;9.60;6.95;;;9.40;80.30;;;;;;6068676;23;20021;-80
2023/02/08 05:36:15;;;;;;;9.90;7.18;;;9.30;80.30;;;;;;6072352;23;20006;-81
2023/02/08 05:38:40;;;;;;;9.80;7.35;;;9.40;80.30;;;;;;6066228;23;20030;-80
2023/02/08 05:41:06;;;;;;;9.52;6.88;;;9.40;80.30;;;;;;6063652;23;20003;-79
2023/02/08 05:43:31;;;;;;;9.68;6.75;;;9.40;80.40;;;;;;6087941;23;19999;-77
2023/02/08 05:45:57;;;;;;;10.07;7.18;;;9.40;80.30;;;;;;6085198;23;20330;-79
2023/02/08 05:48:22;;;;;;;9.90;7.20;;;9.40;80.30;;;;;;6061367;23;20014;-78
2023/02/08 05:50:48;;;;;;;9.98;6.88;;;9.40;80.40;;;;;;6088134;23;20017;-77
2023/02/08 05:53:14;;;;;;;10.02;7.05;;;9.40;80.80;;;;;;6062056;23;20056;-77
2023/02/08 05:55:42;;;;;;;10.85;7.80;;;9.30;80.30;;;;;;6086508;23;20034;-77
2023/02/08 05:58:08;;;;;;;10.80;7.63;;;9.40;80.40;;;;;;6061803;23;20079;-79
2023/02/08 06:00:33;;;;;;;10.32;7.28;;;9.40;80.20;;;;;;6062691;23;20030;-77
2023/02/08 06:02:59;;;;;;;9.57;6.75;;;9.40;80.30;;;;;;6061968;23;20357;-76
2023/02/08 06:05:24;;;;;;;9.40;6.78;;;9.40;80.30;;;;;;6088057;23;20030;-80
2023/02/08 06:07:49;;;;;;;9.63;6.78;;;9.40;80.30;;;;;;6087736;23;20006;-79
2023/02/08 06:10:15;;;;;;;9.95;7.13;;;9.30;80.40;;;;;;6063450;23;20002;-78
2023/02/08 06:12:41;;;;;;;9.63;7.00;;;9.40;80.30;;;;;;6062993;23;20076;-79
2023/02/08 06:15:07;;;;;;;10.38;7.20;;;9.30;80.30;;;;;;6086809;23;20060;-77
2023/02/08 06:17:32;;;;;;;10.90;7.43;;;9.30;80.30;;;;;;6086946;23;20052;-76
2023/02/08 06:19:58;;;;;;;11.43;7.82;;;9.30;80.30;;;;;;6086781;23;20078;-79
2023/02/08 06:22:23;;;;;;;10.65;7.45;;;9.30;80.20;;;;;;6062504;23;19994;-80
2023/02/08 06:24:49;;;;;;;11.48;7.95;;;9.30;80.40;;;;;;6067145;23;20017;-79
2023/02/08 06:27:14;;;;;;;11.15;7.80;;;9.30;80.20;;;;;;6066562;23;20013;-81
2023/02/08 06:29:40;;;;;;;10.32;7.22;;;9.30;80.40;;;;;;6066168;23;20006;-81
2023/02/08 06:32:05;;;;;;;14.48;10.23;;;9.30;80.30;;;;;;6067061;23;20475;-81
2023/02/08 06:34:31;;;;;;;14.52;10.85;;;9.30;79.10;;;;;;6065590;23;20007;-78
2023/02/08 12:40:56;;;;;;;8.98;6.47;;;11.70;74.00;;;;;;6125142;23;20462;-78
2023/02/08 12:44:06;;;;;;;8.82;6.38;;;11.70;74.00;;;;;;6094172;23;20012;-80
2023/02/08 12:46:46;;;;;;;8.98;6.45;;;11.70;74.30;;;;;;6122073;23;20037;-78
2023/02/08 12:49:33;;;;;;;8.35;6.32;;;11.70;74.70;;;;;;6121730;23;20032;-78
2023/02/08 12:52:36;;;;;;;10.13;7.05;;;11.70;74.10;;;;;;6095685;23;20408;-78
2023/02/08 12:55:18;;;;;;;9.18;6.88;;;11.70;74.20;;;;;;6095314;23;20432;-80
2023/02/08 12:57:50;;;;;;;9.23;6.82;;;11.70;74.10;;;;;;6095627;23;20068;-77
2023/02/08 13:00:18;;;;;;;9.15;6.90;;;11.70;74.00;;;;;;6095380;23;20089;-78
2023/02/08 13:02:56;;;;;;;9.43;6.50;;;11.70;74.40;;;;;;6121171;23;20385;-78
2023/02/08 13:05:23;;;;;;;9.50;7.00;;;11.70;73.90;;;;;;6095159;23;20064;-78
2023/02/08 13:08:20;;;;;;;9.00;6.60;;;11.60;74.00;;;;;;6121355;23;20086;-78
2023/02/08 13:10:52;;;;;;;8.88;6.60;;;11.70;74.00;;;;;;6089569;23;20063;-78
2023/02/08 13:13:28;;;;;;;9.15;6.68;;;11.70;74.00;;;;;;6095731;23;20038;-79
2023/02/08 13:15:59;;;;;;;9.10;6.35;;;11.60;74.00;;;;;;6094972;23;20020;-79
2023/02/08 13:18:31;;;;;;;9.13;6.50;;;11.60;74.20;;;;;;6095305;23;20009;-78
2023/02/08 13:21:01;;;;;;;9.38;6.80;;;11.60;74.30;;;;;;6121098;23;20009;-78
2023/02/08 13:23:45;;;;;;;9.38;6.97;;;11.60;74.20;;;;;;6095315;23;20136;-78
2023/02/08 13:26:26;;;;;;;9.32;6.80;;;11.60;74.50;;;;;;6121094;23;20005;-78
2023/02/08 13:28:57;;;;;;;11.02;7.20;;;11.50;74.30;;;;;;6095265;23;20014;-79
2023/02/08 13:31:29;;;;;;;9.80;6.97;;;11.50;74.40;;;;;;6120640;23;20523;-78
2023/02/08 13:34:20;;;;;;;8.52;6.25;;;11.50;74.40;;;;;;6095151;23;20016;-79
2023/02/08 13:36:51;;;;;;;8.88;6.38;;;11.50;74.40;;;;;;6120139;23;20441;-78
2023/02/08 13:39:32;;;;;;;8.80;6.57;;;11.40;74.50;;;;;;6095442;23;20030;-80
2023/02/08 13:41:58;;;;;;;9.13;6.35;;;11.50;75.00;;;;;;6121011;23;19998;-78
2023/02/08 13:44:47;;;;;;;9.48;6.28;;;11.40;74.60;;;;;;6095402;23;20002;-78
2023/02/08 13:47:26;;;;;;;9.75;6.90;;;11.40;74.60;;;;;;6094924;23;20014;-78
2023/02/08 13:50:00;;;;;;;8.23;6.00;;;11.40;74.70;;;;;;6095143;23;20096;-78
2023/02/08 13:52:32;;;;;;;8.90;6.70;;;11.40;74.70;;;;;;6121014;23;20077;-78
2023/02/08 13:55:30;;;;;;;8.65;6.10;;;11.40;74.80;;;;;;6121296;23;20030;-78
2023/02/08 13:58:03;;;;;;;8.68;5.97;;;11.40;74.80;;;;;;6094779;23;20435;-79
2023/02/08 14:00:31;;;;;;;9.27;6.53;;;11.30;74.80;;;;;;6095053;23;20013;-79
2023/02/08 14:02:57;;;;;;;8.60;6.03;;;11.30;75.30;;;;;;6121113;23;20005;-78
2023/02/08 14:05:43;;;;;;;9.02;6.40;;;11.30;74.90;;;;;;6095184;23;20101;-78
2023/02/08 14:08:43;;;;;;;9.00;6.38;;;11.30;74.90;;;;;;6094948;23;20017;-78
2023/02/08 14:11:20;;;;;;;9.32;6.38;;;11.30;75.00;;;;;;6051240;23;20010;-79
2023/02/08 14:14:02;;;;;;;10.82;6.47;;;11.30;75.00;;;;;;6095034;23;19998;-78
2023/02/08 14:16:30;;;;;;;8.48;6.03;;;11.30;75.10;;;;;;6095383;23;20006;-80
2023/02/08 14:19:01;;;;;;;8.73;6.10;;;11.30;75.10;;;;;;6094920;23;20005;-78
2023/02/08 14:21:30;;;;;;;9.13;6.60;;;11.20;75.10;;;;;;6120894;23;19998;-78
2023/02/08 14:24:05;;;;;;;8.93;6.28;;;11.20;75.20;;;;;;6095138;23;20072;-78
2023/02/08 14:26:32;;;;;;;8.52;5.93;;;11.20;75.30;;;;;;6093963;23;20010;-79
2023/02/08 14:29:01;;;;;;;9.05;6.28;;;11.20;75.30;;;;;;6094762;23;20075;-79
2023/02/08 14:31:39;;;;;;;8.50;5.80;;;11.20;75.40;;;;;;6120605;23;19998;-79
2023/02/08 14:34:05;;;;;;;8.98;6.05;;;11.20;75.50;;;;;;6095000;23;20075;-81
2023/02/08 14:36:34;;;;;;;9.10;6.47;;;11.10;75.50;;;;;;6116836;23;20095;-79
2023/02/08 14:39:28;;;;;;;8.25;6.00;;;11.10;75.50;;;;;;6241613;23;20425;-79
2023/02/08 14:42:04;;;;;;;8.50;5.85;;;11.10;75.50;;;;;;6242756;23;20004;-79
2023/02/08 14:44:40;;;;;;;7.97;5.43;;;11.10;75.60;;;;;;6242189;23;20038;-79
2023/02/08 14:47:41;;;;;;;8.65;5.72;;;11.10;75.60;;;;;;6244038;22;20006;-79
2023/02/08 14:50:17;;;;;;;9.00;6.00;;;11.00;75.70;;;;;;6242650;23;20367;-78
2023/02/08 14:52:54;;;;;;;8.57;6.20;;;11.00;75.70;;;;;;6242755;23;20007;-79
2023/02/08 14:55:26;;;;;;;8.63;5.85;;;11.00;75.70;;;;;;6242584;23;20008;-78
2023/02/08 14:57:55;;;;;;;;;;;11.00;75.80;;;;;;6243535;22;20327;-79
2023/02/08 15:00:26;;;;;;;8.13;6.00;;;11.00;75.80;;;;;;6242585;23;19906;-80
2023/02/08 15:02:52;;;;;;;8.13;5.60;;;11.00;75.90;;;;;;6242701;23;20000;-80
2023/02/08 15:05:31;;;;;;;8.30;5.70;;;11.00;75.90;;;;;;6241536;23;20000;-79
2023/02/08 15:07:58;;;;;;;8.32;5.65;;;10.80;75.90;;;;;;6240488;22;20008;-77
2023/02/08 15:10:27;;;;;;;8.50;5.60;;;10.90;76.00;;;;;;6240071;23;20004;-81
2023/02/08 15:12:56;;;;;;;8.00;5.40;;;10.90;76.10;;;;;;6243631;22;20001;-81
2023/02/08 15:15:38;;;;;;;7.88;5.50;;;10.90;76.10;;;;;;6242156;23;20061;-80
2023/02/08 15:18:05;;;;;;;7.20;5.07;;;10.90;76.20;;;;;;6242464;22;20008;-80
2023/02/08 15:20:34;;;;;;;8.70;5.78;;;10.80;76.20;;;;;;6241359;23;20316;-81
2023/02/08 15:23:25;;;;;;;7.82;5.70;;;10.80;76.20;;;;;;6242373;23;20015;-79
2023/02/08 15:26:00;;;;;;;8.40;5.38;;;10.80;76.30;;;;;;6235899;23;20086;-79
2023/02/08 15:28:28;;;;;;;8.60;5.70;;;10.80;76.30;;;;;;6237656;23;20012;-79
2023/02/08 15:30:58;;;;;;;8.10;5.30;;;10.80;76.40;;;;;;6236739;23;20008;-78
2023/02/08 15:33:24;;;;;;;8.18;5.80;;;10.80;76.30;;;;;;6235238;23;20059;-79
2023/02/08 15:35:56;;;;;;;8.05;5.50;;;10.70;76.40;;;;;;6236506;22;20038;-79
2023/02/08 15:38:22;;;;;;;8.35;5.78;;;10.70;76.40;;;;;;6233305;22;20346;-78
2023/02/08 15:41:02;;;;;;;8.35;5.57;;;10.70;76.50;;;;;;6239129;23;19997;-80
2023/02/08 15:43:28;;;;;;;8.40;5.80;;;10.70;76.50;;;;;;6240728;22;20093;-77
2023/02/08 15:45:59;;;;;;;7.85;5.60;;;10.70;76.60;;;;;;6238482;23;20447;-78
2023/02/08 15:48:25;;;;;;;8.20;5.78;;;10.70;76.50;;;;;;6238801;23;20007;-76
2023/02/08 15:50:55;;;;;;;7.88;5.53;;;10.70;76.50;;;;;;6239659;22;20313;-80
2023/02/08 15:53:22;;;;;;;8.25;5.75;;;10.60;76.50;;;;;;6238507;23;20004;-79
2023/02/08 15:55:51;;;;;;;8.30;5.63;;;10.60;76.50;;;;;;6239025;23;20016;-81
2023/02/08 15:58:31;;;;;;;8.98;5.95;;;10.60;76.50;;;;;;6238844;22;20047;-79
2023/02/08 16:00:59;;;;;;;7.97;5.28;;;10.60;76.50;;;;;;6239559;23;19996;-79
2023/02/08 16:03:25;;;;;;;8.00;5.38;;;10.60;76.60;;;;;;6239614;23;20005;-78
2023/02/08 16:05:55;;;;;;;7.60;5.20;;;10.60;76.70;;;;;;6240561;22;20011;-79
2023/02/08 16:08:24;;;;;;;8.27;5.60;;;10.60;76.70;;;;;;6238930;22;20019;-77
2023/02/08 16:10:55;;;;;;;7.93;5.30;;;10.60;76.70;;;;;;6239259;23;20012;-78
2023/02/08 16:13:24;;;;;;;8.77;5.50;;;10.50;76.70;;;;;;6244177;23;20053;-79
2023/02/08 16:15:56;;;;;;;8.20;5.15;;;10.50;76.80;;;;;;6244045;23;20004;-76
2023/02/08 16:18:48;;;;;;;7.88;5.30;;;10.50;76.80;;;;;;6243694;22;20439;-78
2023/02/08 16:21:23;;;;;;;8.05;5.43;;;10.50;77.40;;;;;;6243725;23;20000;-80
2023/02/08 16:23:55;;;;;;;7.55;5.13;;;10.50;76.90;;;;;;6245910;23;20083;-79
2023/02/08 16:26:25;;;;;;;8.05;5.28;;;10.50;76.90;;;;;;6246481;22;20435;-79
2023/02/08 16:28:56;;;;;;;9.07;5.90;;;10.50;76.90;;;;;;6246535;23;20032;-79
2023/02/08 16:31:27;;;;;;;7.20;4.85;;;10.50;76.90;;;;;;6245630;23;20011;-79
2023/02/08 16:33:58;;;;;;;8.00;5.60;;;10.50;77.00;;;;;;6246501;23;20004;-78
2023/02/08 16:36:30;;;;;;;8.50;5.45;;;10.50;77.00;;;;;;6230827;22;20034;-76
2023/02/08 16:39:15;;;;;;;8.13;5.68;;;10.40;77.00;;;;;;6096639;23;20010;-77
2023/02/08 16:41:53;;;;;;;8.18;5.43;;;10.50;77.10;;;;;;6096048;23;20020;-78
2023/02/08 16:44:29;;;;;;;7.13;4.95;;;10.40;77.10;;;;;;6096683;23;20081;-78
2023/02/08 16:46:55;;;;;;;7.97;5.28;;;10.40;77.10;;;;;;6096055;23;20017;-79
2023/02/08 16:49:21;;;;;;;8.25;5.22;;;10.40;77.00;;;;;;6096609;23;20006;-79
2023/02/08 16:51:46;;;;;;;8.27;5.47;;;10.40;76.80;;;;;;6096389;23;20442;-77
2023/02/08 16:54:18;;;;;;;9.00;5.40;;;10.40;76.60;;;;;;6096424;23;20448;-76
2023/02/08 16:56:45;;;;;;;8.23;5.50;;;10.40;76.50;;;;;;6122163;23;20063;-77
2023/02/08 16:59:12;;;;;;;8.43;5.60;;;10.40;76.50;;;;;;6096554;23;20012;-78
2023/02/08 17:01:38;;;;;;;8.80;5.43;;;10.30;76.70;;;;;;6122406;23;20009;-80
2023/02/08 17:04:04;;;;;;;11.18;5.45;;;10.30;76.40;;;;;;6096485;23;20010;-78
2023/02/08 17:06:35;;;;;;;8.25;5.63;;;10.30;75.60;;;;;;6096592;23;20038;-77
2023/02/08 17:09:02;;;;;;;8.30;5.60;;;10.30;75.10;;;;;;6096007;23;20080;-76
2023/02/08 17:11:29;;;;;;;8.55;5.75;;;10.30;75.20;;;;;;6095756;23;20006;-76
2023/02/08 17:13:57;;;;;;;8.80;5.75;;;10.30;75.40;;;;;;6121675;23;20002;-76
2023/02/08 17:16:24;;;;;;;8.98;5.65;;;10.30;75.80;;;;;;6095855;23;20006;-77
2023/02/08 17:18:50;;;;;;;7.68;5.10;;;10.30;75.90;;;;;;6121803;23;20051;-76
2023/02/08 17:21:16;;;;;;;9.10;5.88;;;10.30;76.10;;;;;;6096504;23;20013;-77
2023/02/08 17:23:41;;;;;;;10.50;5.90;;;10.30;76.20;;;;;;6096315;23;20448;-75
2023/02/08 17:26:26;;;;;;;8.88;5.53;;;10.30;76.30;;;;;;6094002;23;20010;-77
2023/02/08 17:28:53;;;;;;;8.70;5.55;;;10.30;76.30;;;;;;6097412;23;20006;-76
2023/02/08 17:31:20;;;;;;;9.45;5.53;;;10.30;76.50;;;;;;6094752;23;20017;-76
2023/02/08 17:33:46;;;;;;;8.90;5.80;;;10.30;76.40;;;;;;6095091;23;20002;-76
2023/02/08 17:36:13;;;;;;;8.23;5.47;;;10.20;76.50;;;;;;6095224;23;20014;-77
2023/02/08 17:38:41;;;;;;;8.13;4.97;;;10.30;76.50;;;;;;6121352;23;20012;-78
2023/02/08 17:41:12;;;;;;;8.93;5.85;;;10.20;76.60;;;;;;6096348;23;20013;-78
2023/02/08 17:43:37;;;;;;;8.23;5.30;;;10.30;76.70;;;;;;6096438;23;20060;-77
2023/02/08 17:46:08;;;;;;;11.07;6.20;;;10.30;76.80;;;;;;6096151;23;20010;-77
2023/02/08 17:48:34;;;;;;;8.75;5.50;;;10.20;76.80;;;;;;6096418;23;20018;-76
2023/02/08 17:50:59;;;;;;;8.35;5.30;;;10.20;76.70;;;;;;6098346;23;20093;-79
2023/02/08 17:53:25;;;;;;;8.50;5.88;;;10.20;76.70;;;;;;6097753;23;20005;-81
2023/02/08 17:55:51;;;;;;;9.52;5.68;;;10.20;77.00;;;;;;6097990;23;20014;-82
2023/02/08 18:01:39;;;;;;;8.13;5.63;;;10.20;76.90;;;;;;6120400;23;20075;-77
2023/02/08 18:04:05;;;;;;;9.15;5.65;;;10.10;76.70;;;;;;6097959;23;20433;-81
2023/02/08 18:06:30;;;;;;;8.77;5.65;;;10.20;76.80;;;;;;6097364;23;20485;-78
2023/02/08 18:08:56;;;;;;;9.18;6.00;;;10.20;76.80;;;;;;6098071;23;20084;-77
2023/02/08 18:11:22;;;;;;;8.27;5.70;;;10.20;76.70;;;;;;6095469;23;20064;-81
2023/02/08 18:13:50;;;;;;;8.88;6.10;;;10.20;76.70;;;;;;6097623;23;20006;-81
2023/02/08 18:16:18;;;;;;;8.95;5.90;;;10.20;76.70;;;;;;6096498;23;20013;-80
2023/02/08 18:18:44;;;;;;;9.88;6.15;;;10.20;76.60;;;;;;6098253;23;20032;-79
2023/02/08 18:21:15;;;;;;;8.20;5.78;;;10.10;76.70;;;;;;6097408;23;20472;-81
2023/02/08 18:23:41;;;;;;;8.50;5.93;;;10.10;76.50;;;;;;6098147;23;20318;-80
2023/02/08 18:26:10;;;;;;;9.93;6.00;;;10.10;76.50;;;;;;6097807;23;20013;-81
2023/02/08 18:28:35;;;;;;;9.23;6.43;;;10.10;76.60;;;;;;6096250;23;20006;-82
2023/02/08 18:31:06;;;;;;;9.95;6.10;;;10.10;76.40;;;;;;6096173;23;20006;-77
2023/02/08 18:33:33;;;;;;;9.00;6.43;;;10.10;76.50;;;;;;6095993;23;20013;-77
2023/02/08 18:35:59;;;;;;;8.75;6.28;;;10.10;76.40;;;;;;6095744;23;20009;-81
2023/02/08 18:38:25;;;;;;;9.07;6.35;;;10.10;76.60;;;;;;6133405;22;20341;-79
2023/02/08 18:40:51;;;;;;;8.55;6.15;;;10.10;77.10;;;;;;6101401;23;20010;-82
2023/02/08 18:43:17;;;;;;;9.27;6.40;;;10.10;76.40;;;;;;6103366;23;20002;-81
2023/02/08 18:45:44;;;;;;;9.15;6.15;;;10.10;76.50;;;;;;6103208;23;20016;-81
2023/02/08 18:48:13;;;;;;;9.43;6.82;;;10.10;76.60;;;;;;6104098;23;20013;-81
2023/02/08 18:50:39;;;;;;;9.40;6.32;;;10.10;76.60;;;;;;6128090;23;20330;-82
2023/02/08 18:53:04;;;;;;;9.13;6.40;;;10.10;76.40;;;;;;6104324;23;20009;-81
2023/02/08 18:55:30;;;;;;;9.25;5.95;;;10.10;76.30;;;;;;6128482;23;20013;-82
2023/02/08 18:57:56;;;;;;;9.30;6.57;;;10.00;76.40;;;;;;6102862;23;20055;-83
2023/02/08 19:00:21;;;;;;;8.68;6.22;;;10.00;76.60;;;;;;6127635;23;20415;-82
2023/02/08 19:02:47;;;;;;;9.85;6.57;;;10.00;76.40;;;;;;6103881;23;20024;-81
2023/02/08 19:05:12;;;;;;;9.93;6.68;;;10.10;76.50;;;;;;6102937;23;20001;-81
2023/02/08 19:07:38;;;;;;;9.60;6.60;;;10.10;76.50;;;;;;6102965;23;20056;-80
2023/02/08 19:10:05;;;;;;;8.50;6.22;;;10.00;76.60;;;;;;6128079;23;20006;-81
2023/02/08 19:12:30;;;;;;;9.32;6.55;;;10.00;76.50;;;;;;6102753;23;20006;-81
2023/02/08 19:14:56;;;;;;;8.77;6.07;;;10.00;76.50;;;;;;6123630;23;20002;-78
2023/02/08 19:17:21;;;;;;;9.27;6.28;;;9.90;76.40;;;;;;6094226;23;20012;-79